Time;durP1;ratioP1;P1;durP2;ratioP2;P2;SDS_P1;SDS_P2;PMS_P1;PMS_P2;Temp;Humidity;BMP_temperature;BMP_pressure;BME280_temperature;BME280_humidity;BME280_pressure;Samples;Min_cycle;Max_cycle;Signal;HPM_P1;HPM_P2
2022/11/07 05:07:45;;;;;;;39.35;29.67;;;;;;;11.45;96.70;100884.50;5604043;31;76741;-56
2022/11/07 05:10:47;;;;;;;44.05;30.83;;;;;;;11.45;96.70;100884.50;5603429;31;33581;-56
2022/11/07 05:13:49;;;;;;;41.10;30.58;;;;;;;10.92;98.69;100882.19;5597023;31;33632;-56
2022/11/07 05:16:53;;;;;;;36.65;29.27;;;;;;;10.92;98.95;100879.50;5587035;31;33652;-56
2022/11/07 05:19:55;;;;;;;38.03;30.83;;;;;;;10.94;98.69;100888.09;5603330;31;34344;-56
2022/11/07 05:23:17;;;;;;;37.70;30.35;;;;;;;10.94;98.54;100900.72;5603474;31;33672;-57
2022/11/07 05:26:20;;;;;;;39.97;30.42;;;;;;;10.97;98.92;100897.50;5600170;31;34273;-57
2022/11/07 05:29:22;;;;;;;41.20;30.77;;;;;;;11.07;98.56;100902.03;5567875;32;33573;-57
2022/11/07 05:32:25;;;;;;;42.85;30.75;;;;;;;11.22;98.39;100894.75;5564216;32;33809;-56
2022/11/07 05:35:27;;;;;;;36.92;29.95;;;;;;;11.31;96.82;100892.31;5562639;32;34324;-56
2022/11/07 05:38:29;;;;;;;37.90;30.02;;;;;;;11.28;97.03;100888.31;5577334;32;33780;-56
2022/11/07 05:41:34;;;;;;;39.85;31.65;;;;;;;11.32;96.64;100883.19;5582365;31;33685;-57
2022/11/07 05:44:36;;;;;;;38.90;31.35;;;;;;;11.27;96.70;100891.28;5580314;31;33523;-56
2022/11/07 05:47:39;;;;;;;39.67;30.75;;;;;;;11.27;97.23;100893.97;5578740;32;34258;-57
2022/11/07 05:50:43;;;;;;;35.60;30.02;;;;;;;11.33;96.67;100898.25;5581467;32;33774;-57
2022/11/07 05:53:45;;;;;;;37.22;31.40;;;;;;;11.38;96.05;100918.87;5577732;32;33640;-56
2022/11/07 05:56:47;;;;;;;39.65;30.23;;;;;;;11.32;96.67;100928.03;5581132;31;33591;-57
2022/11/07 05:59:50;;;;;;;40.53;30.25;;;;;;;11.26;97.96;100928.03;5579964;31;34257;-57
2022/11/07 06:03:01;;;;;;;43.85;31.80;;;;;;;11.38;97.24;100926.94;5580988;31;33584;-56
2022/11/07 06:06:04;;;;;;;44.70;31.58;;;;;;;11.37;96.92;100934.19;5579144;31;33537;-57
2022/11/07 06:09:06;;;;;;;41.55;29.80;;;;;;;11.47;96.80;100936.06;5581610;31;32925;-57
2022/11/07 06:12:08;;;;;;;37.28;30.73;;;;;;;11.55;96.32;100940.84;5580755;31;34100;-57
2022/11/07 06:15:11;;;;;;;36.35;29.67;;;;;;;11.56;96.17;100942.47;5577987;32;33746;-57
2022/11/07 06:18:16;;;;;;;38.13;30.20;;;;;;;11.49;97.30;100944.66;5569642;32;34408;-57
2022/11/07 06:21:18;;;;;;;36.73;30.00;;;;;;;11.45;97.14;100940.88;5566475;32;33712;-57
2022/11/07 06:24:21;;;;;;;40.10;31.77;;;;;;;11.46;98.44;100953.25;5567342;32;33426;-57
2022/11/07 06:27:23;;;;;;;45.38;33.47;;;;;;;11.52;97.37;100963.72;5567544;32;33333;-56
2022/11/07 06:30:26;;;;;;;41.15;33.42;;;;;;;11.51;96.97;100961.28;5564970;32;34335;-57
2022/11/07 06:33:29;;;;;;;39.40;31.00;;;;;;;11.50;97.02;100973.09;5565549;32;33344;-57
2022/11/07 06:36:32;;;;;;;37.90;30.17;;;;;;;11.44;98.56;100977.66;5566964;32;33317;-56
2022/11/07 06:39:34;;;;;;;35.80;28.62;;;;;;;11.51;97.85;100977.38;5565934;32;33123;-57
2022/11/07 06:42:36;;;;;;;37.45;27.58;;;;;;;11.58;97.00;100987.84;5568780;32;33777;-57
2022/11/07 06:45:39;;;;;;;33.72;26.90;;;;;;;11.61;97.58;100990.00;5565960;32;33700;-57
2022/11/07 06:48:42;;;;;;;33.97;26.58;;;;;;;11.69;97.27;100995.63;5568074;32;33587;-57
2022/11/07 06:51:44;;;;;;;36.63;26.08;;;;;;;11.86;95.85;100997.22;5565254;32;33855;-57
2022/11/07 06:54:49;;;;;;;33.83;26.40;;;;;;;11.89;94.87;100991.31;5568845;32;34380;-57
2022/11/07 06:57:51;;;;;;;34.28;24.87;;;;;;;11.82;95.42;100996.94;5567219;32;34358;-57
2022/11/07 07:00:57;;;;;;;32.80;25.80;;;;;;;11.86;95.97;101005.28;5566966;32;33673;-57
2022/11/07 07:04:00;;;;;;;36.08;24.50;;;;;;;11.97;94.56;101002.28;5567063;32;33595;-56
2022/11/07 07:07:05;;;;;;;32.97;23.23;;;;;;;11.90;95.14;101009.03;5566309;32;34794;-57
2022/11/07 07:10:08;;;;;;;30.60;22.33;;;;;;;11.95;95.96;101003.63;5568496;32;34012;-57
2022/11/07 07:13:12;;;;;;;29.30;22.10;;;;;;;12.04;95.24;101007.34;5566528;32;34130;-57
2022/11/07 07:16:16;;;;;;;31.77;22.00;;;;;;;12.07;94.78;101009.50;5568274;32;33606;-57
2022/11/07 07:19:18;;;;;;;33.58;21.12;;;;;;;12.12;94.33;101014.03;5563723;32;34387;-56
2022/11/07 07:22:20;;;;;;;34.30;22.70;;;;;;;12.18;93.85;101013.75;5567536;32;34091;-57
2022/11/07 07:25:23;;;;;;;34.33;22.55;;;;;;;12.20;93.98;101014.28;5568777;32;33196;-57
2022/11/07 07:28:25;;;;;;;34.97;21.60;;;;;;;12.21;94.06;101015.88;5566558;31;33660;-57
2022/11/07 07:31:30;;;;;;;36.70;22.83;;;;;;;12.27;94.27;101015.88;5564728;32;33446;-57
2022/11/07 07:34:32;;;;;;;35.80;24.60;;;;;;;12.36;93.21;101022.28;5551904;32;34264;-57
2022/11/07 07:37:36;;;;;;;31.73;23.92;;;;;;;12.34;93.74;101016.37;5566833;32;33565;-56
2022/11/07 07:40:38;;;;;;;33.83;23.27;;;;;;;12.42;92.58;101021.19;5566077;32;33760;-57
2022/11/07 07:43:40;;;;;;;37.92;23.92;;;;;;;12.40;92.93;101026.81;5567713;32;34401;-57
2022/11/07 07:46:45;;;;;;;29.77;20.98;;;;;;;12.47;92.13;101026.53;5568674;32;33654;-57
2022/11/07 07:49:47;;;;;;;35.10;20.40;;;;;;;12.46;93.74;101022.25;5565885;32;34402;-58
2022/11/07 07:52:57;;;;;;;32.60;19.58;;;;;;;12.43;93.02;101025.47;5564869;32;33862;-57
2022/11/07 07:56:01;;;;;;;30.08;19.55;;;;;;;12.41;93.20;101025.75;5561202;32;33789;-57
2022/11/07 07:59:04;;;;;;;28.95;19.08;;;;;;;12.40;93.29;101034.09;5567131;32;33896;-57
2022/11/07 08:02:11;;;;;;;27.67;17.40;;;;;;;12.34;92.32;101029.81;5561900;32;33492;-57
2022/11/07 08:05:15;;;;;;;29.15;17.70;;;;;;;12.36;93.07;101033.03;5564181;32;34267;-57
2022/11/07 08:08:17;;;;;;;29.10;18.05;;;;;;;12.28;92.63;101026.34;5565884;32;34192;-56
2022/11/07 08:11:19;;;;;;;27.52;17.37;;;;;;;12.23;92.26;101032.56;5565392;32;33704;-57
2022/11/07 08:14:21;;;;;;;26.80;16.02;;;;;;;12.27;93.12;101032.00;5563024;32;34690;-57
2022/11/07 08:17:23;;;;;;;23.30;16.12;;;;;;;12.26;91.87;101025.81;5564536;32;33667;-57
2022/11/07 08:20:26;;;;;;;25.80;16.40;;;;;;;12.28;91.68;101030.91;5565888;32;33629;-57
2022/11/07 08:23:30;;;;;;;30.10;17.08;;;;;;;12.26;91.20;101027.72;5565256;32;34085;-57
2022/11/07 08:26:32;;;;;;;25.98;17.27;;;;;;;12.21;91.53;101026.63;5567599;32;33604;-57
2022/11/07 08:29:34;;;;;;;27.27;16.45;;;;;;;12.24;91.40;101025.28;5566815;32;33434;-57
2022/11/07 08:32:36;;;;;;;25.05;16.80;;;;;;;12.26;91.44;101025.03;5565382;32;33723;-57
2022/11/07 08:35:39;;;;;;;25.42;16.20;;;;;;;12.29;91.65;101024.47;5567123;32;33593;-57
2022/11/07 08:38:43;;;;;;;25.17;15.95;;;;;;;12.29;90.26;101027.16;5557239;32;33375;-56
2022/11/07 08:41:46;;;;;;;24.08;16.10;;;;;;;12.24;91.74;101022.59;5557375;32;34406;-57
2022/11/07 08:44:48;;;;;;;27.35;15.85;;;;;;;12.31;92.13;101025.78;5565195;32;33334;-57
2022/11/07 08:47:55;;;;;;;27.62;17.40;;;;;;;12.44;92.68;101032.47;5558768;32;33620;-56
2022/11/07 08:50:58;;;;;;;23.27;15.25;;;;;;;12.39;90.74;101035.97;5557969;32;33749;-57
2022/11/07 08:54:00;;;;;;;23.42;15.50;;;;;;;12.38;90.60;101045.12;5566485;32;34317;-57
2022/11/07 08:57:02;;;;;;;24.50;15.75;;;;;;;12.38;90.78;101034.38;5565641;32;33225;-57
2022/11/07 09:00:06;;;;;;;23.35;15.73;;;;;;;12.42;90.38;101040.81;5559405;32;34127;-57
2022/11/07 09:03:10;;;;;;;22.55;14.95;;;;;;;12.44;90.03;101043.22;5562213;32;33563;-57
2022/11/07 09:06:33;;;;;;;25.88;15.68;;;;;;;12.47;90.11;101056.09;5558949;32;34331;-57
2022/11/07 09:09:35;;;;;;;25.60;16.02;;;;;;;12.59;90.68;101051.22;5558125;32;33312;-57
2022/11/07 09:12:45;;;;;;;27.73;17.15;;;;;;;12.62;90.02;101050.66;5564697;32;34331;-57
2022/11/07 09:15:47;;;;;;;21.62;16.08;;;;;;;12.57;89.50;101047.19;5559069;32;33567;-57
2022/11/07 09:18:53;;;;;;;24.35;15.60;;;;;;;12.56;90.68;101048.28;5562012;32;33747;-57
2022/11/07 09:21:56;;;;;;;24.30;16.08;;;;;;;12.58;90.09;101048.78;5553872;32;32046;-56
2022/11/07 09:24:58;;;;;;;22.60;15.18;;;;;;;12.64;89.96;101050.37;5563529;32;32041;-57
2022/11/07 09:28:02;;;;;;;21.87;14.87;;;;;;;12.65;90.46;101055.50;5561344;32;33689;-57
2022/11/07 09:31:04;;;;;;;23.27;15.00;;;;;;;12.70;89.79;101057.34;5558401;32;33717;-56
2022/11/07 09:34:06;;;;;;;23.40;14.65;;;;;;;12.65;88.18;101058.19;5548158;32;33791;-57
2022/11/07 09:37:09;;;;;;;22.48;15.30;;;;;;;12.66;88.27;101061.66;5561293;32;34366;-56
2022/11/07 09:40:23;;;;;;;24.27;14.38;;;;;;;12.74;88.95;101052.22;5565576;32;33887;-56
2022/11/07 09:43:44;;;;;;;23.02;15.02;;;;;;;12.75;87.87;101053.81;5564817;32;33603;-56
2022/11/07 09:46:55;;;;;;;25.05;15.95;;;;;;;12.82;88.74;101054.31;5565828;32;33650;-56
2022/11/07 09:50:00;;;;;;;23.12;16.27;;;;;;;12.85;88.70;101053.78;5565288;32;33718;-57
2022/11/07 09:53:11;;;;;;;29.05;16.48;;;;;;;12.81;88.59;101052.69;5566318;32;34917;-57
2022/11/07 09:56:14;;;;;;;24.90;15.77;;;;;;;12.91;88.95;101052.62;5568342;32;34377;-57
2022/11/07 09:59:39;;;;;;;28.02;16.65;;;;;;;12.87;88.52;101048.91;5569751;32;33550;-56
2022/11/07 10:02:51;;;;;;;24.47;15.60;;;;;;;12.86;89.56;101052.69;5559150;32;34384;-57
2022/11/07 10:06:22;;;;;;;25.65;15.43;;;;;;;12.92;89.99;101056.94;5566871;32;34354;-57
2022/11/07 10:09:48;;;;;;;30.62;15.70;;;;;;;12.98;89.99;101055.00;5563929;32;34342;-57
2022/11/07 10:13:17;;;;;;;26.60;15.43;;;;;;;12.98;89.25;101044.25;5563696;32;33034;-56
2022/11/07 10:16:31;;;;;;;26.48;15.38;;;;;;;13.00;89.23;101050.16;5566763;32;32182;-56
2022/11/07 10:19:55;;;;;;;30.75;18.35;;;;;;;13.00;88.27;101042.88;5566132;32;34813;-56
2022/11/07 10:23:27;;;;;;;31.42;15.85;;;;;;;12.94;88.41;101031.34;5565895;32;33696;-56
2022/11/07 10:26:30;;;;;;;29.08;15.15;;;;;;;12.98;89.18;101031.62;5566628;32;33378;-57
2022/11/07 10:29:46;;;;;;;26.08;15.23;;;;;;;12.99;89.81;101038.59;5565392;32;34312;-56
2022/11/07 10:33:26;;;;;;;27.40;15.38;;;;;;;12.99;89.66;101029.72;5559254;32;33707;-58
2022/11/07 10:36:30;;;;;;;22.10;14.30;;;;;;;12.99;89.68;101027.84;5560984;32;33687;-56
2022/11/07 10:39:33;;;;;;;24.77;14.68;;;;;;;13.04;89.87;101026.97;5559131;32;33715;-57
2022/11/07 10:42:35;;;;;;;21.62;13.18;;;;;;;13.03;88.01;101036.16;5563941;32;34354;-56
2022/11/07 10:45:38;;;;;;;19.95;13.48;;;;;;;12.97;86.44;101029.19;5565405;32;33741;-56
2022/11/07 10:48:56;;;;;;;20.50;13.10;;;;;;;12.76;87.35;101023.16;5560531;32;34352;-57
2022/11/07 10:52:08;;;;;;;19.25;13.13;;;;;;;12.80;88.63;101022.31;5558950;32;34424;-56
2022/11/07 10:55:15;;;;;;;18.98;11.95;;;;;;;12.84;89.46;101020.66;5562480;32;32201;-57
2022/11/07 10:58:25;;;;;;;19.27;12.60;;;;;;;12.86;86.99;101023.09;5557992;32;34330;-56
2022/11/07 11:01:27;;;;;;;18.85;11.85;;;;;;;12.86;89.89;101015.00;5563570;32;34048;-57
2022/11/07 11:04:36;;;;;;;18.87;11.57;;;;;;;12.86;89.60;101009.63;5565632;32;33618;-57
2022/11/07 11:07:40;;;;;;;16.83;11.35;;;;;;;12.87;88.39;101011.22;5564886;32;34320;-57
2022/11/07 11:10:42;;;;;;;16.60;11.02;;;;;;;12.81;88.43;100998.88;5567340;32;34449;-56
2022/11/07 11:13:44;;;;;;;18.58;10.85;;;;;;;12.74;86.58;101009.16;5567389;32;33679;-56
2022/11/07 11:16:52;;;;;;;16.42;10.23;;;;;;;12.67;88.62;100993.34;5567864;32;34295;-57
2022/11/07 11:19:55;;;;;;;18.77;11.80;;;;;;;12.76;86.16;100996.25;5567107;32;33756;-56
2022/11/07 11:22:58;;;;;;;17.60;10.82;;;;;;;12.71;87.27;100989.00;5564902;32;33549;-56
2022/11/07 11:26:29;;;;;;;14.98;11.27;;;;;;;12.66;86.32;100987.16;5567538;32;33722;-57
2022/11/07 11:29:49;;;;;;;14.82;9.75;;;;;;;12.66;88.56;100984.47;5559748;31;33291;-57
2022/11/07 11:33:21;;;;;;;16.35;9.82;;;;;;;12.74;90.01;100988.44;5561574;32;33947;-57
2022/11/07 11:36:33;;;;;;;15.40;10.13;;;;;;;12.74;88.56;100993.03;5564806;32;33733;-56
2022/11/07 11:39:48;;;;;;;14.63;9.63;;;;;;;12.77;88.99;100993.25;5567143;32;33597;-56
2022/11/07 11:42:58;;;;;;;14.98;8.70;;;;;;;12.78;89.47;100992.19;5566212;32;34429;-56
2022/11/07 11:46:27;;;;;;;15.48;8.45;;;;;;;12.72;88.53;100989.81;5561566;32;33755;-56
2022/11/07 11:49:43;;;;;;;14.45;8.75;;;;;;;12.74;88.74;100990.34;5563089;32;34562;-57
2022/11/07 11:52:45;;;;;;;10.33;7.33;;;;;;;12.63;86.37;100979.63;5562497;32;34403;-56
2022/11/07 11:56:26;;;;;;;10.48;7.62;;;;;;;12.75;86.49;100984.69;5555071;32;34430;-57
2022/11/07 11:59:50;;;;;;;13.10;6.78;;;;;;;12.73;85.14;100986.84;5562032;32;33628;-57
2022/11/07 12:03:16;;;;;;;10.25;6.70;;;;;;;12.73;86.50;100976.06;5557487;32;34404;-57
2022/11/07 12:06:33;;;;;;;10.02;5.85;;;;;;;12.72;86.87;100974.47;5557820;31;34365;-56
2022/11/07 12:09:47;;;;;;;12.30;6.68;;;;;;;12.69;85.84;100970.47;5558478;32;33828;-57
2022/11/07 12:12:53;;;;;;;10.68;6.07;;;;;;;12.70;86.99;100976.63;5560459;32;34332;-57
2022/11/07 12:16:08;;;;;;;8.75;5.70;;;;;;;12.72;88.18;100971.78;5560873;31;34103;-57
2022/11/07 12:19:30;;;;;;;;;;;;;;;12.75;87.31;100970.41;5560760;32;33742;-56
2022/11/07 12:23:03;;;;;;;8.65;5.60;;;;;;;12.68;85.30;100976.94;5558470;32;34748;-57
2022/11/07 12:26:12;;;;;;;9.80;5.97;;;;;;;12.70;87.47;100976.63;5562951;32;34364;-56
2022/11/07 12:29:41;;;;;;;9.55;6.28;;;;;;;12.84;86.03;100972.22;5562719;32;33882;-56
2022/11/07 12:33:04;;;;;;;10.32;4.47;;;;;;;12.90;86.67;100965.72;5565840;32;33638;-57
2022/11/07 12:36:21;;;;;;;5.95;3.70;;;;;;;12.87;84.00;100966.28;5559791;32;33764;-57
2022/11/07 12:39:36;;;;;;;7.95;4.45;;;;;;;12.87;79.32;100957.41;5560210;32;33416;-56
2022/11/07 12:43:08;;;;;;;8.43;4.18;;;;;;;12.89;81.34;100968.72;5560036;32;34246;-57
2022/11/07 12:46:36;;;;;;;6.32;3.45;;;;;;;12.91;82.80;100964.66;5563180;32;33605;-57
2022/11/07 12:49:57;;;;;;;6.60;3.72;;;;;;;13.02;81.66;100959.19;5563235;32;34094;-57
2022/11/07 12:53:20;;;;;;;7.32;3.55;;;;;;;12.92;80.27;100960.88;5565918;32;33664;-56
2022/11/07 12:56:33;;;;;;;7.00;4.62;;;;;;;12.93;80.67;100964.38;5565026;32;33561;-56
2022/11/07 12:59:38;;;;;;;6.37;3.10;;;;;;;12.93;79.61;100956.28;5564083;32;33796;-57
2022/11/07 13:03:04;;;;;;;8.23;3.25;;;;;;;13.04;80.34;100965.06;5566313;32;34144;-56
2022/11/07 13:06:43;;;;;;;5.60;3.37;;;;;;;13.10;80.19;100955.87;5564723;32;33676;-56
2022/11/07 13:09:53;;;;;;;4.50;2.85;;;;;;;13.10;81.41;100958.56;5561681;32;33831;-56
2022/11/07 13:13:47;;;;;;;5.03;3.22;;;;;;;13.07;78.84;100964.50;5566724;32;33719;-57
2022/11/07 13:17:18;;;;;;;7.40;3.97;;;;;;;13.02;79.66;100962.69;5531280;32;33772;-56
2022/11/07 13:20:21;;;;;;;9.55;3.30;;;;;;;13.06;82.04;100963.72;5547810;32;34461;-57
2022/11/07 13:23:25;;;;;;;7.72;3.15;;;;;;;13.09;81.27;100965.84;5548439;32;33699;-58
2022/11/07 13:26:28;;;;;;;5.87;3.42;;;;;;;13.08;80.83;100963.44;5564405;32;34344;-56
2022/11/07 13:29:50;;;;;;;6.45;3.40;;;;;;;13.09;81.52;100960.47;5569119;32;33711;-56
2022/11/07 13:32:53;;;;;;;5.90;3.55;;;;;;;13.13;82.12;100960.69;5569245;32;33789;-57
2022/11/07 13:35:58;;;;;;;7.57;3.42;;;;;;;13.20;82.30;100965.75;5569939;32;33975;-57
2022/11/07 13:39:05;;;;;;;7.68;3.47;;;;;;;13.25;82.58;100958.47;5569670;32;33266;-56
2022/11/07 13:42:15;;;;;;;6.40;3.42;;;;;;;13.28;80.70;100957.91;5569383;32;34443;-57
2022/11/07 13:45:26;;;;;;;7.50;4.20;;;;;;;13.31;82.48;100962.72;5570238;32;34503;-56
2022/11/07 13:48:49;;;;;;;10.35;4.00;;;;;;;13.30;82.63;100963.00;5570009;32;33682;-57
2022/11/07 13:51:55;;;;;;;6.50;3.97;;;;;;;13.27;82.50;100958.19;5570198;32;33897;-57
2022/11/07 13:55:26;;;;;;;7.35;4.45;;;;;;;13.22;80.95;100953.62;5569832;32;33693;-57
2022/11/07 13:58:32;;;;;;;8.70;4.03;;;;;;;13.27;81.80;100948.19;5549484;32;34330;-56
2022/11/07 14:01:42;;;;;;;6.28;4.00;;;;;;;13.37;80.46;100939.22;5563140;32;34405;-56
2022/11/07 14:04:54;;;;;;;8.70;5.95;;;;;;;13.32;80.04;100952.75;5567873;32;33913;-57
2022/11/07 14:08:24;;;;;;;49.67;37.92;;;;;;;13.30;80.76;100947.62;5570015;32;33677;-57
2022/11/07 14:11:27;;;;;;;10.50;7.03;;;;;;;13.34;81.56;100947.88;5569800;32;33641;-57
2022/11/07 14:14:29;;;;;;;29.55;25.42;;;;;;;13.29;78.98;100951.44;5569910;32;34368;-56
2022/11/07 14:17:35;;;;;;;80.18;72.37;;;;;;;13.34;80.17;100955.94;5570040;32;33819;-57
2022/11/07 14:20:37;;;;;;;22.27;19.98;;;;;;;13.36;80.08;100956.47;5570274;32;33671;-57
2022/11/07 14:23:43;;;;;;;8.95;6.55;;;;;;;13.36;80.28;100954.59;5570172;32;33715;-56
2022/11/07 14:26:56;;;;;;;5.90;3.72;;;;;;;13.32;80.25;100960.84;5567906;32;34383;-57
2022/11/07 14:29:59;;;;;;;5.90;3.75;;;;;;;13.29;80.38;100967.59;5569376;32;33717;-57
2022/11/07 14:33:03;;;;;;;8.32;3.67;;;;;;;13.23;78.82;100966.00;5569533;32;33774;-57
2022/11/07 14:36:06;;;;;;;6.50;3.58;;;;;;;13.24;80.18;100956.84;5569583;32;33250;-56
2022/11/07 14:39:12;;;;;;;7.20;3.92;;;;;;;13.19;81.59;100959.56;5569100;32;34319;-57
2022/11/07 14:42:23;;;;;;;7.43;3.55;;;;;;;13.12;81.37;100962.59;5569173;32;34314;-57
2022/11/07 14:45:26;;;;;;;6.47;4.07;;;;;;;13.08;82.74;100960.75;5569728;32;33815;-57
2022/11/07 14:48:50;;;;;;;10.35;4.28;;;;;;;13.05;83.00;100967.50;5569404;32;34407;-56
2022/11/07 14:51:54;;;;;;;7.60;3.97;;;;;;;12.93;85.12;100959.78;5569709;32;33796;-57
2022/11/07 14:55:17;;;;;;;5.53;3.72;;;;;;;12.91;84.05;100967.34;5569744;32;34367;-57
2022/11/07 14:58:23;;;;;;;6.55;3.83;;;;;;;12.84;85.92;100974.12;5569756;32;34330;-57
2022/11/07 15:01:29;;;;;;;12.13;7.57;;;;;;;12.82;86.04;100979.00;5569461;32;33808;-57
2022/11/07 15:04:38;;;;;;;12.93;8.70;;;;;;;12.75;86.52;100982.00;5569579;32;33581;-56
2022/11/07 15:07:46;;;;;;;10.65;5.82;;;;;;;12.73;86.08;100981.47;5569788;32;33703;-57
2022/11/07 15:10:59;;;;;;;11.32;5.55;;;;;;;12.65;86.37;100971.31;5569814;32;34348;-57
2022/11/07 15:14:18;;;;;;;7.30;4.47;;;;;;;12.63;86.30;100976.16;5569088;32;34383;-57
2022/11/07 15:17:23;;;;;;;6.93;4.37;;;;;;;12.51;87.59;100975.69;5557386;32;34384;-57
2022/11/07 15:20:29;;;;;;;7.10;4.43;;;;;;;12.44;88.42;100976.00;5556577;32;33403;-57
2022/11/07 15:23:33;;;;;;;8.35;5.03;;;;;;;12.45;87.49;100970.34;5550334;32;33609;-57
2022/11/07 15:26:35;;;;;;;11.30;4.70;;;;;;;12.26;89.41;100980.13;5551572;32;33646;-57
2022/11/07 15:29:38;;;;;;;7.72;4.80;;;;;;;12.27;89.31;100975.56;5550073;32;33589;-56
2022/11/07 15:32:41;;;;;;;10.52;6.03;;;;;;;12.27;88.45;100975.56;5549658;32;33802;-57
2022/11/07 15:35:46;;;;;;;16.83;6.32;;;;;;;12.18;89.26;100984.19;5549902;32;33405;-56
2022/11/07 15:38:50;;;;;;;10.02;6.93;;;;;;;12.14;88.33;100980.44;5555888;32;33535;-56
2022/11/07 15:41:52;;;;;;;10.52;7.00;;;;;;;12.07;88.94;100988.00;5569606;32;33978;-57
2022/11/07 15:44:54;;;;;;;10.68;7.07;;;;;;;12.09;87.69;100983.16;5549763;32;33615;-57
2022/11/07 15:47:56;;;;;;;9.55;6.60;;;;;;;11.97;89.27;100985.34;5549697;32;33742;-57
2022/11/07 15:50:59;;;;;;;12.52;7.30;;;;;;;11.86;89.98;100989.97;5548846;32;34479;-57
2022/11/07 15:54:01;;;;;;;12.88;7.82;;;;;;;11.84;90.05;100985.91;5550118;32;34414;-56
2022/11/07 15:57:05;;;;;;;13.45;7.32;;;;;;;11.91;88.95;100995.31;5550006;32;33717;-57
2022/11/07 16:00:14;;;;;;;11.63;6.95;;;;;;;11.81;89.63;100989.13;5549776;32;33788;-56
2022/11/07 16:03:18;;;;;;;13.30;8.63;;;;;;;11.86;88.62;100989.97;5549893;32;33659;-57
2022/11/07 16:06:27;;;;;;;13.57;7.72;;;;;;;11.74;89.78;100987.53;5548787;32;33271;-56
2022/11/07 16:09:31;;;;;;;13.48;8.07;;;;;;;11.70;88.64;100991.84;5548711;32;33391;-57
2022/11/07 16:12:33;;;;;;;11.45;8.23;;;;;;;11.63;89.52;100999.37;5549585;32;34329;-57
2022/11/07 16:15:37;;;;;;;12.68;9.02;;;;;;;11.60;89.48;101001.81;5549889;32;34272;-56
2022/11/07 16:18:44;;;;;;;22.67;10.02;;;;;;;11.68;88.41;101010.09;5549563;32;33870;-56
2022/11/07 16:21:49;;;;;;;16.75;11.48;;;;;;;11.58;89.31;101007.44;5549944;32;34465;-56
2022/11/07 16:24:51;;;;;;;17.02;10.18;;;;;;;11.69;88.05;101008.25;5549490;32;33738;-57
2022/11/07 16:27:57;;;;;;;20.05;12.60;;;;;;;11.49;89.25;101009.09;5549646;32;34323;-56
2022/11/07 16:31:01;;;;;;;15.32;12.13;;;;;;;11.44;89.85;101015.25;5549746;32;33766;-57
2022/11/07 16:34:03;;;;;;;17.65;12.68;;;;;;;11.42;88.99;101016.59;5549630;32;33781;-57
2022/11/07 16:37:07;;;;;;;28.42;11.50;;;;;;;11.33;89.79;101016.34;5549516;32;33922;-57
2022/11/07 16:40:16;;;;;;;20.27;13.45;;;;;;;11.37;89.73;101024.66;5549510;32;34482;-57
2022/11/07 16:43:19;;;;;;;20.35;12.37;;;;;;;11.32;90.16;101022.78;5549565;32;33684;-57
2022/11/07 16:46:23;;;;;;;18.45;12.60;;;;;;;11.37;88.45;101025.47;5549268;32;34039;-57
2022/11/07 16:49:32;;;;;;;20.27;12.98;;;;;;;11.16;89.55;101023.84;5549410;32;33983;-58
2022/11/07 16:52:34;;;;;;;20.15;12.43;;;;;;;11.10;89.76;101020.37;5549441;32;34399;-57
2022/11/07 16:55:37;;;;;;;22.00;13.23;;;;;;;11.21;90.88;101026.53;5549477;32;33872;-57
2022/11/07 16:58:40;;;;;;;20.33;13.13;;;;;;;11.40;88.98;101034.88;5549445;32;33678;-56
